Time;durP1;ratioP1;P1;durP2;ratioP2;P2;SDS_P1;SDS_P2;PMS_P1;PMS_P2;Temp;Humidity;BMP_temperature;BMP_pressure;BME280_temperature;BME280_humidity;BME280_pressure;Samples;Min_cycle;Max_cycle;Signal;HPM_P1;HPM_P2
2023/05/24 00:01:06;;;;;;;10.17;2.30;;;;;;;8.03;79.93;101419.22;5023213;28;20214;-69
2023/05/24 00:03:33;;;;;;;9.33;2.73;;;;;;;8.01;79.05;101427.22;5021941;28;20202;-69
2023/05/24 00:06:01;;;;;;;14.13;3.07;;;;;;;8.00;79.23;101428.16;5024535;28;20238;-67
2023/05/24 00:08:27;;;;;;;10.07;3.07;;;;;;;7.98;79.98;101429.13;5021113;28;20206;-69
2023/05/24 00:10:54;;;;;;;10.30;3.00;;;;;;;7.97;79.84;101430.06;5017117;28;20236;-69
2023/05/24 00:13:20;;;;;;;9.73;3.07;;;;;;;7.96;79.54;101423.03;5021436;28;20240;-69
2023/05/24 00:15:47;;;;;;;14.23;2.93;;;;;;;7.94;79.81;101428.38;5026214;28;20213;-68
2023/05/24 00:18:13;;;;;;;10.77;3.07;;;;;;;7.92;80.08;101422.28;5017827;28;20228;-69
2023/05/24 00:20:40;;;;;;;9.80;3.20;;;;;;;7.92;80.17;101429.38;5020092;28;20206;-68
2023/05/24 00:23:08;;;;;;;9.27;2.60;;;;;;;7.90;80.54;101420.59;5014237;28;20227;-69
2023/05/24 00:25:34;;;;;;;7.37;2.43;;;;;;;7.90;80.65;101420.59;5026869;28;20222;-69
2023/05/24 00:28:01;;;;;;;11.57;2.83;;;;;;;7.91;80.79;101430.28;5020413;28;20206;-68
2023/05/24 00:30:28;;;;;;;13.93;2.70;;;;;;;7.91;80.97;101430.28;5020572;28;20263;-68
2023/05/24 00:32:54;;;;;;;13.73;2.70;;;;;;;7.91;80.51;101419.69;5022488;28;20591;-69
2023/05/24 00:35:21;;;;;;;10.43;3.40;;;;;;;7.89;80.91;101414.44;5020675;28;20589;-68
2023/05/24 00:37:47;;;;;;;7.13;2.53;;;;;;;7.89;80.91;101411.78;5024473;28;20649;-67
2023/05/24 00:40:15;;;;;;;13.27;3.13;;;;;;;7.89;81.37;101411.78;5023175;28;20206;-69
2023/05/24 00:42:41;;;;;;;8.70;2.50;;;;;;;7.88;81.02;101407.41;5017567;28;20225;-67
2023/05/24 00:45:09;;;;;;;13.03;3.00;;;;;;;7.87;81.75;101408.34;5015388;28;20229;-69
2023/05/24 00:47:35;;;;;;;16.90;3.40;;;;;;;7.88;81.45;101414.53;5023746;28;20313;-70
2023/05/24 00:50:02;;;;;;;12.40;3.30;;;;;;;7.88;81.56;101411.88;5020362;28;20210;-66
2023/05/24 00:52:29;;;;;;;18.53;3.30;;;;;;;7.88;82.08;101404.75;5015387;28;20230;-67
2023/05/24 00:54:56;;;;;;;13.50;3.77;;;;;;;7.90;81.75;101407.34;5015156;28;20247;-68
2023/05/24 00:57:23;;;;;;;11.50;3.03;;;;;;;7.91;82.51;101419.69;5024842;28;20210;-67
2023/05/24 00:59:51;;;;;;;9.03;3.10;;;;;;;7.91;82.03;101406.41;5015231;28;20301;-69
2023/05/24 01:02:17;;;;;;;15.03;3.77;;;;;;;7.90;81.96;101405.56;5020707;28;20751;-68
2023/05/24 01:04:44;;;;;;;19.43;3.27;;;;;;;7.89;82.04;101411.78;5019852;28;20296;-69
2023/05/24 01:07:18;;;;;;;10.47;2.90;;;;;;;7.90;82.85;101402.03;5021536;28;20238;-70
2023/05/24 01:09:55;;;;;;;12.83;3.33;;;;;;;7.89;82.57;101398.50;5018132;28;20259;-68
2023/05/24 01:12:32;;;;;;;11.43;3.43;;;;;;;7.90;82.57;101402.03;5040750;22;20225;-83
2023/05/24 01:15:14;;;;;;;10.17;2.97;;;;;;;7.90;82.85;101400.25;5041180;28;20198;-83
2023/05/24 01:17:50;;;;;;;11.87;3.13;;;;;;;7.90;83.23;101394.94;5039050;28;20241;-82
2023/05/24 01:20:18;;;;;;;14.20;3.40;;;;;;;7.90;83.14;101399.38;5043377;28;20209;-83
2023/05/24 01:23:06;;;;;;;12.30;3.20;;;;;;;7.91;83.71;101398.47;5048911;28;20213;-83
2023/05/24 01:26:00;;;;;;;14.93;3.00;;;;;;;7.90;83.58;101392.28;5043262;28;20221;-83
2023/05/24 01:28:29;;;;;;;14.13;3.23;;;;;;;7.91;83.23;101393.16;5037765;28;21396;-82
2023/05/24 01:30:56;;;;;;;14.17;3.43;;;;;;;7.89;82.88;101389.69;5043945;28;20198;-83
2023/05/24 01:33:22;;;;;;;11.57;3.60;;;;;;;7.88;83.15;101385.34;5050767;28;20210;-82
2023/05/24 01:35:49;;;;;;;12.53;3.73;;;;;;;7.88;82.80;101393.31;5052270;28;20205;-82
2023/05/24 01:38:15;;;;;;;18.13;3.60;;;;;;;7.86;83.92;101385.41;5042392;28;20233;-82
2023/05/24 01:40:43;;;;;;;12.63;4.07;;;;;;;7.87;83.55;101386.28;5041732;28;20213;-83
2023/05/24 01:43:15;;;;;;;16.03;4.03;;;;;;;7.84;84.24;101381.94;5048018;28;20212;-83
2023/05/24 01:45:53;;;;;;;16.43;3.80;;;;;;;7.86;83.88;101382.75;5048632;28;20210;-83
2023/05/24 01:48:27;;;;;;;15.50;3.97;;;;;;;7.88;84.28;101385.34;5045024;28;20237;-83
2023/05/24 01:50:57;;;;;;;18.23;4.40;;;;;;;7.87;84.08;101380.97;5044441;28;20367;-82
2023/05/24 01:53:26;;;;;;;18.67;4.13;;;;;;;7.88;84.30;101388.84;5039080;28;20209;-83
2023/05/24 01:55:56;;;;;;;15.83;4.10;;;;;;;7.89;84.22;101384.41;5047715;28;20755;-84
2023/05/24 01:58:25;;;;;;;13.33;4.07;;;;;;;7.89;83.90;101387.03;5045768;28;20234;-83
2023/05/24 02:00:53;;;;;;;13.13;3.70;;;;;;;7.89;84.55;101379.09;5046774;28;20700;-83
2023/05/24 02:03:20;;;;;;;14.33;3.60;;;;;;;7.89;84.69;101377.31;5052353;28;20216;-83
2023/05/24 02:05:46;;;;;;;12.23;3.70;;;;;;;7.90;84.89;101370.22;5039215;28;20232;-82
2023/05/24 02:08:13;;;;;;;16.40;3.90;;;;;;;7.89;85.31;101363.19;5048282;28;20218;-83
2023/05/24 02:10:40;;;;;;;13.63;4.60;;;;;;;7.88;84.83;101364.97;5045731;28;20205;-82
2023/05/24 02:13:07;;;;;;;19.67;4.37;;;;;;;7.90;85.00;101354.28;5051797;28;20228;-83
2023/05/24 02:15:35;;;;;;;17.77;3.83;;;;;;;7.90;85.13;101352.50;5052691;28;20198;-82
2023/05/24 02:18:03;;;;;;;17.77;4.53;;;;;;;7.91;85.62;101356.03;5055018;28;20257;-83
2023/05/24 02:20:29;;;;;;;15.10;4.30;;;;;;;7.92;85.08;101352.44;5036976;28;20209;-83
2023/05/24 02:22:56;;;;;;;16.63;4.50;;;;;;;7.91;85.65;101356.03;5042179;28;20803;-83
2023/05/24 02:25:23;;;;;;;13.60;4.60;;;;;;;7.89;86.03;101352.56;5033691;28;20225;-82
2023/05/24 02:27:50;;;;;;;15.77;4.70;;;;;;;7.89;85.66;101349.91;5050201;28;20253;-83
2023/05/24 02:30:17;;;;;;;15.77;4.23;;;;;;;7.88;86.03;101346.41;5041742;28;20629;-83
2023/05/24 02:32:43;;;;;;;15.13;4.13;;;;;;;7.87;86.40;101343.84;5041021;28;20205;-82
2023/05/24 02:35:11;;;;;;;20.07;4.63;;;;;;;7.86;86.56;101337.66;5051184;28;20213;-83
2023/05/24 02:37:38;;;;;;;15.83;4.53;;;;;;;7.86;86.93;101340.31;5042222;28;20308;-83
2023/05/24 02:40:06;;;;;;;19.53;4.67;;;;;;;7.85;86.46;101337.72;5049250;28;20216;-82
2023/05/24 02:42:33;;;;;;;14.00;3.70;;;;;;;7.85;86.34;101340.38;5043087;28;20212;-83
2023/05/24 02:44:59;;;;;;;16.20;4.37;;;;;;;7.83;86.07;101339.59;5044157;28;20287;-83
2023/05/24 02:47:26;;;;;;;20.27;4.90;;;;;;;7.80;86.81;101326.44;5050748;28;20222;-82
2023/05/24 02:49:53;;;;;;;18.53;4.90;;;;;;;7.78;86.88;101337.09;5051505;28;20247;-83
2023/05/24 02:52:22;;;;;;;15.90;5.03;;;;;;;7.77;87.10;101329.22;5042335;28;20579;-83
2023/05/24 02:54:48;;;;;;;19.67;4.40;;;;;;;7.74;87.46;101331.97;5047287;28;20247;-83
2023/05/24 02:57:15;;;;;;;19.93;4.60;;;;;;;7.71;87.65;101338.28;5042680;28;20225;-83
2023/05/24 02:59:42;;;;;;;16.27;4.53;;;;;;;7.68;87.66;101337.56;5048975;28;20229;-83
2023/05/24 03:02:08;;;;;;;22.70;6.20;;;;;;;7.64;87.94;101337.69;5048674;28;20201;-83
2023/05/24 03:04:35;;;;;;;18.03;4.90;;;;;;;7.62;88.65;101336.88;5050673;28;20559;-83
2023/05/24 03:07:02;;;;;;;18.60;4.97;;;;;;;7.61;88.64;101343.09;5049389;28;20233;-83
2023/05/24 03:09:29;;;;;;;19.30;5.13;;;;;;;7.60;88.00;101348.47;5046761;28;20205;-82
2023/05/24 03:11:56;;;;;;;16.17;4.70;;;;;;;7.57;88.40;101341.47;5048841;28;20216;-82
2023/05/24 03:14:23;;;;;;;21.43;5.50;;;;;;;7.56;88.54;101350.34;5049768;28;20197;-82
2023/05/24 03:16:50;;;;;;;16.97;4.87;;;;;;;7.56;89.43;101349.50;5049094;28;20204;-82
2023/05/24 03:19:17;;;;;;;24.03;5.50;;;;;;;7.54;88.98;101338.94;5049825;28;20213;-83
2023/05/24 03:21:43;;;;;;;24.60;5.47;;;;;;;7.51;89.63;101340.88;5044531;28;20202;-82
2023/05/24 03:24:11;;;;;;;18.90;4.70;;;;;;;7.50;89.57;101342.66;5046870;28;20681;-83
2023/05/24 03:26:39;;;;;;;17.50;5.00;;;;;;;7.49;89.77;101351.53;5046837;28;20218;-83
2023/05/24 03:29:06;;;;;;;16.73;4.33;;;;;;;7.49;90.59;101348.91;5050190;28;20205;-82
2023/05/24 03:31:32;;;;;;;23.73;5.07;;;;;;;7.49;89.74;101351.53;5049878;28;20235;-83
2023/05/24 03:33:59;;;;;;;18.67;5.07;;;;;;;7.50;90.31;101344.47;5053991;28;20206;-83
2023/05/24 03:36:27;;;;;;;20.97;4.43;;;;;;;7.49;90.54;101346.25;5045756;28;20261;-83
2023/05/24 03:38:54;;;;;;;15.07;5.10;;;;;;;7.48;90.27;101352.47;5049811;28;20313;-83
2023/05/24 03:41:21;;;;;;;19.53;4.57;;;;;;;7.48;90.73;101347.16;5045893;28;20205;-84
2023/05/24 03:43:49;;;;;;;18.30;4.33;;;;;;;7.49;90.51;101351.53;5048509;28;20248;-83
2023/05/24 03:46:15;;;;;;;17.93;4.67;;;;;;;7.49;91.38;101348.91;5037871;28;20238;-83
2023/05/24 03:48:42;;;;;;;19.23;5.50;;;;;;;7.50;91.71;101360.38;5040415;28;20218;-83
2023/05/24 03:51:08;;;;;;;16.80;5.10;;;;;;;7.50;91.17;101349.75;5048040;28;20203;-83
2023/05/24 03:53:35;;;;;;;14.73;4.60;;;;;;;7.50;91.41;101353.28;5044950;28;20202;-82
2023/05/24 03:56:01;;;;;;;14.07;4.23;;;;;;;7.52;91.76;101354.09;5049502;28;20210;-83
2023/05/24 03:58:28;;;;;;;16.80;4.53;;;;;;;7.54;92.16;101360.16;5045675;28;20221;-83
2023/05/24 04:00:55;;;;;;;16.77;4.57;;;;;;;7.56;92.13;101366.25;5039470;28;20207;-83
2023/05/24 04:03:24;;;;;;;18.47;4.73;;;;;;;7.57;91.99;101370.66;5041814;28;20197;-82
2023/05/24 04:05:51;;;;;;;24.00;5.50;;;;;;;7.57;92.59;101362.69;5045718;28;20227;-83
2023/05/24 04:08:17;;;;;;;15.90;5.17;;;;;;;7.60;92.67;101356.41;5043422;28;20229;-82
2023/05/24 04:10:44;;;;;;;17.50;4.93;;;;;;;7.61;92.54;101364.31;5049917;28;20216;-83
2023/05/24 04:13:10;;;;;;;16.17;5.50;;;;;;;7.65;92.55;101371.22;5043445;28;21489;-84
2023/05/24 04:15:37;;;;;;;15.57;4.83;;;;;;;7.69;92.37;101368.44;5043873;28;20229;-84
2023/05/24 04:18:05;;;;;;;21.93;5.43;;;;;;;7.71;93.47;101366.56;5048922;28;20253;-84
2023/05/24 04:20:32;;;;;;;21.87;5.33;;;;;;;7.72;93.50;101366.50;5041660;28;20212;-84
2023/05/24 04:22:59;;;;;;;19.10;4.63;;;;;;;7.75;93.06;101365.53;5049461;28;20205;-84
2023/05/24 04:25:25;;;;;;;21.90;5.37;;;;;;;7.77;93.47;101369.00;5046322;28;20234;-84
2023/05/24 04:27:52;;;;;;;13.40;4.33;;;;;;;7.80;92.90;101363.56;5040160;28;20308;-83
2023/05/24 04:30:20;;;;;;;18.43;5.13;;;;;;;7.83;93.24;101372.28;5045246;28;20225;-84
2023/05/24 04:32:47;;;;;;;21.47;5.40;;;;;;;7.86;93.44;101364.19;5039959;28;20201;-84
2023/05/24 04:35:15;;;;;;;19.03;6.40;;;;;;;7.90;93.70;101359.59;5042175;28;20206;-84
2023/05/24 04:37:42;;;;;;;20.27;4.90;;;;;;;7.93;93.72;101359.47;5048448;28;20588;-84
2023/05/24 04:40:10;;;;;;;23.33;5.37;;;;;;;7.97;93.73;101372.56;5047280;28;20206;-84
2023/05/24 04:42:37;;;;;;;19.90;5.93;;;;;;;7.99;93.37;101370.72;5044127;28;20229;-85
2023/05/24 04:45:04;;;;;;;18.97;5.03;;;;;;;8.04;93.73;101378.50;5043443;28;20231;-84
2023/05/24 04:47:30;;;;;;;19.30;4.77;;;;;;;8.06;94.31;101373.94;5037641;28;20222;-84
2023/05/24 04:49:56;;;;;;;15.30;5.20;;;;;;;8.09;94.07;101371.19;5045777;28;20608;-84
2023/05/24 04:52:24;;;;;;;25.10;5.70;;;;;;;8.11;94.58;101374.63;5049797;28;20666;-84
2023/05/24 04:54:51;;;;;;;21.63;5.30;;;;;;;8.14;94.23;101369.22;5045152;28;20206;-85
2023/05/24 04:57:18;;;;;;;21.80;6.17;;;;;;;8.18;94.46;101373.47;5042226;28;20887;-84
2023/05/24 04:59:44;;;;;;;22.87;5.40;;;;;;;8.24;94.67;101375.00;5044313;28;20597;-84
2023/05/24 05:02:11;;;;;;;19.00;5.13;;;;;;;8.28;94.97;101365.97;5041411;28;20205;-84
2023/05/24 05:04:37;;;;;;;19.37;5.53;;;;;;;8.33;94.51;101379.94;5052103;28;20205;-84
2023/05/24 05:07:04;;;;;;;25.23;6.10;;;;;;;8.38;94.81;101372.66;5050022;28;20233;-84
2023/05/24 05:09:32;;;;;;;20.23;5.23;;;;;;;8.43;93.84;101368.00;5045301;28;20709;-82
2023/05/24 05:11:58;;;;;;;20.27;4.93;;;;;;;8.51;94.27;101372.97;5052621;28;20206;-83
2023/05/24 05:14:25;;;;;;;23.40;5.17;;;;;;;8.56;93.52;101373.66;5050736;28;20202;-83
2023/05/24 05:16:51;;;;;;;19.60;5.33;;;;;;;8.63;93.79;101375.97;5047368;28;20205;-83
2023/05/24 05:19:18;;;;;;;25.53;6.20;;;;;;;8.70;93.68;101373.91;5051641;28;20221;-82
2023/05/24 05:21:44;;;;;;;26.30;5.70;;;;;;;8.76;93.98;101373.66;5043023;28;20682;-82
2023/05/24 05:24:11;;;;;;;14.83;4.87;;;;;;;8.81;93.32;101374.28;5045820;28;20292;-82
2023/05/24 05:26:39;;;;;;;20.00;5.60;;;;;;;8.88;93.41;101381.06;5048011;28;20234;-84
2023/05/24 05:29:05;;;;;;;19.87;4.90;;;;;;;8.92;92.78;101374.69;5054113;28;20260;-84
2023/05/24 05:31:32;;;;;;;21.30;5.07;;;;;;;8.96;92.26;101370.94;5053302;28;20209;-87
2023/05/24 05:33:58;;;;;;;23.17;5.30;;;;;;;9.04;92.41;101379.44;5049878;28;20198;-87
2023/05/24 05:36:25;;;;;;;18.57;5.43;;;;;;;9.14;91.80;101363.06;5051118;28;20210;-88
2023/05/24 05:38:53;;;;;;;20.50;4.83;;;;;;;9.25;91.76;101372.28;5054071;28;20222;-87
2023/05/24 05:41:20;;;;;;;20.43;5.07;;;;;;;9.37;92.14;101365.53;5043701;28;20255;-87
2023/05/24 05:43:47;;;;;;;23.67;5.70;;;;;;;9.47;91.40;101368.63;5041455;28;20206;-88
2023/05/24 05:46:14;;;;;;;17.97;4.73;;;;;;;9.60;90.84;101361.78;5054808;28;20271;-87
2023/05/24 05:48:45;;;;;;;15.97;4.73;;;;;;;9.71;90.77;101362.97;5057854;28;20228;-89
2023/05/24 05:51:11;;;;;;;17.00;4.87;;;;;;;9.84;90.00;101367.72;5052761;28;20755;-87
2023/05/24 05:53:38;;;;;;;21.97;5.00;;;;;;;9.96;89.42;101367.13;5049866;28;20556;-88
2023/05/24 05:56:06;;;;;;;15.33;4.70;;;;;;;10.05;87.69;101370.16;5051115;28;20198;-87
2023/05/24 05:58:35;;;;;;;16.50;4.17;;;;;;;10.17;87.78;101371.38;5049481;28;20249;-88
2023/05/24 06:01:03;;;;;;;18.53;5.33;;;;;;;10.28;86.25;101365.53;5049362;28;20201;-88
2023/05/24 06:03:31;;;;;;;15.93;5.10;;;;;;;10.41;85.98;101380.78;5053132;28;20212;-87
2023/05/24 06:05:58;;;;;;;29.63;6.00;;;;;;;10.55;85.20;101377.44;5040354;28;20691;-87
2023/05/24 06:08:29;;;;;;;17.83;4.27;;;;;;;10.69;84.34;101385.56;5052959;28;20261;-87
2023/05/24 06:10:55;;;;;;;16.47;4.00;;;;;;;10.77;82.64;101375.34;5053330;28;20202;-87
2023/05/24 06:13:22;;;;;;;16.23;4.47;;;;;;;10.85;82.18;101374.97;5045205;28;20215;-86
2023/05/24 06:15:48;;;;;;;19.07;5.47;;;;;;;10.96;81.61;101379.72;5053248;28;20289;-87
2023/05/24 06:18:16;;;;;;;23.50;4.80;;;;;;;11.08;81.40;101379.94;5049750;28;20242;-87
2023/05/24 06:20:43;;;;;;;17.00;4.33;;;;;;;11.18;80.68;101372.28;5050544;28;20659;-87
2023/05/24 06:23:10;;;;;;;17.53;4.30;;;;;;;11.29;80.02;101379.69;5055367;28;20209;-86
2023/05/24 06:25:37;;;;;;;21.50;4.57;;;;;;;11.37;79.29;101381.00;5051118;28;20205;-87
2023/05/24 06:28:07;;;;;;;15.63;4.27;;;;;;;11.44;78.24;101377.06;5052913;28;20224;-87
2023/05/24 06:30:33;;;;;;;16.73;4.70;;;;;;;11.54;77.62;101381.88;5051454;28;20723;-87
2023/05/24 06:33:01;;;;;;;18.57;4.00;;;;;;;11.61;77.11;101381.47;5053621;28;20198;-88
2023/05/24 06:35:29;;;;;;;14.90;4.50;;;;;;;11.71;76.63;101390.66;5052016;28;20228;-89
2023/05/24 06:37:56;;;;;;;13.77;4.67;;;;;;;11.79;76.06;101377.81;5054981;28;20225;-86
2023/05/24 06:40:22;;;;;;;14.80;3.90;;;;;;;11.93;75.38;101386.81;5051241;28;20292;-87
2023/05/24 06:42:49;;;;;;;19.27;4.80;;;;;;;12.02;74.90;101383.59;5047016;28;20294;-87
2023/05/24 06:45:16;;;;;;;18.90;4.03;;;;;;;12.14;74.24;101386.44;5052242;28;20856;-87
2023/05/24 06:47:42;;;;;;;16.63;4.47;;;;;;;12.22;73.67;101379.78;5050114;28;20230;-87
2023/05/24 06:50:09;;;;;;;20.13;5.73;;;;;;;12.28;72.80;101379.44;5052927;28;20201;-87
2023/05/24 06:52:37;;;;;;;15.93;4.33;;;;;;;12.36;72.54;101382.53;5043627;28;20545;-87
2023/05/24 06:55:04;;;;;;;13.57;4.97;;;;;;;12.40;72.53;101384.91;5048757;28;20265;-87
2023/05/24 06:58:02;;;;;;;23.00;4.33;;;;;;;12.47;71.63;101399.63;5056145;28;20315;-88
2023/05/24 07:00:44;;;;;;;15.23;4.10;;;;;;;12.45;70.68;101398.84;5047542;28;20213;-87
2023/05/24 07:03:16;;;;;;;16.50;5.40;;;;;;;12.49;70.62;101411.09;5050711;28;20220;-88
2023/05/24 07:06:49;;;;;;;16.47;4.30;;;;;;;12.50;70.17;101418.16;5050258;28;20202;-87
2023/05/24 07:10:12;;;;;;;;;;;;;;;;;;;;;
2023/05/24 07:16:34;;;;;;;13.83;3.87;;;;;;;12.55;69.79;101414.31;5036660;28;20205;-88
2023/05/24 07:19:08;;;;;;;12.83;4.27;;;;;;;12.56;69.72;101421.38;5043399;28;20229;-88
2023/05/24 07:24:57;;;;;;;16.50;4.30;;;;;;;12.53;69.47;101409.09;4914681;29;20219;-87
2023/05/24 07:30:48;;;;;;;15.93;3.90;;;;;;;12.64;69.74;101420.00;5046244;28;20206;-86
2023/05/24 07:33:19;;;;;;;17.83;4.70;;;;;;;12.71;69.47;101423.19;5043693;28;20296;-87
2023/05/24 07:35:50;;;;;;;16.47;4.50;;;;;;;12.70;68.82;101425.00;5046106;28;20201;-87
2023/05/24 07:41:02;;;;;;;13.10;4.03;;;;;;;12.61;67.92;101430.88;5043135;28;20209;-87
2023/05/24 07:43:29;;;;;;;13.27;4.83;;;;;;;12.56;68.26;101418.72;5046490;28;20210;-87
2023/05/24 07:45:55;;;;;;;13.37;4.30;;;;;;;12.62;68.84;101421.91;5053953;28;20205;-87
2023/05/24 07:48:24;;;;;;;15.97;4.60;;;;;;;12.72;68.90;101432.91;5053924;28;20311;-85
2023/05/24 07:50:57;;;;;;;16.60;4.43;;;;;;;12.78;68.15;101419.16;5046827;28;20272;-87
2023/05/24 07:53:23;;;;;;;9.83;3.93;;;;;;;12.80;67.77;101436.84;5049087;28;20675;-88
2023/05/24 07:55:50;;;;;;;14.77;4.50;;;;;;;12.83;67.68;101436.66;5048929;28;20211;-86
2023/05/24 07:58:18;;;;;;;17.70;4.93;;;;;;;12.87;67.96;101445.34;5051591;28;20225;-86
2023/05/24 08:00:45;;;;;;;15.47;4.17;;;;;;;12.88;67.57;101436.38;5052859;28;20209;-87
2023/05/24 08:03:13;;;;;;;14.67;4.30;;;;;;;12.91;67.46;101435.31;5051405;28;20205;-86
2023/05/24 08:05:40;;;;;;;17.43;4.80;;;;;;;12.90;67.40;101436.28;5053422;28;20214;-87
2023/05/24 08:08:06;;;;;;;14.30;3.73;;;;;;;12.93;67.64;101438.75;5049481;28;20312;-88
2023/05/24 08:10:33;;;;;;;11.30;4.27;;;;;;;12.94;67.41;101438.66;5051233;28;20573;-87
2023/05/24 08:13:00;;;;;;;20.07;4.60;;;;;;;12.93;67.53;101430.75;5051314;28;20229;-87
2023/05/24 08:15:28;;;;;;;11.43;3.87;;;;;;;12.92;67.36;101437.91;5047312;28;20217;-89
2023/05/24 08:17:55;;;;;;;12.67;4.40;;;;;;;12.99;67.46;101441.94;5050403;28;20312;-86
2023/05/24 08:20:22;;;;;;;15.03;3.60;;;;;;;13.02;67.20;101439.06;5044000;28;20209;-87
2023/05/24 08:22:50;;;;;;;14.53;3.77;;;;;;;13.07;66.71;101454.84;5049157;28;20552;-87
2023/05/24 08:25:19;;;;;;;12.80;4.03;;;;;;;13.04;66.44;101452.34;5051927;28;20208;-86
2023/05/24 08:27:48;;;;;;;18.60;4.70;;;;;;;13.00;66.52;101450.81;5050553;28;20232;-87
2023/05/24 08:30:17;;;;;;;11.63;4.23;;;;;;;13.02;66.49;101448.91;5047518;28;20202;-87
2023/05/24 08:32:45;;;;;;;14.63;4.53;;;;;;;13.07;66.93;101449.50;5046975;28;21728;-87
2023/05/24 08:35:13;;;;;;;12.50;3.97;;;;;;;13.04;66.65;101439.84;5052411;28;20207;-86
2023/05/24 08:37:41;;;;;;;12.33;4.07;;;;;;;13.06;67.03;101454.00;5049448;28;20714;-87
2023/05/24 08:40:09;;;;;;;13.27;4.63;;;;;;;13.03;66.95;101448.81;5053818;28;20453;-87
2023/05/24 08:42:38;;;;;;;14.50;4.03;;;;;;;12.98;66.73;101456.25;5050022;28;20205;-88
2023/05/24 08:45:09;;;;;;;16.13;4.30;;;;;;;12.91;66.59;101454.88;5054745;28;20208;-86
2023/05/24 08:47:37;;;;;;;17.57;4.67;;;;;;;12.84;67.91;101459.75;5047279;28;20229;-86
2023/05/24 08:50:07;;;;;;;13.50;4.90;;;;;;;12.82;69.05;101460.81;5050703;28;20287;-87
2023/05/24 08:52:34;;;;;;;16.50;5.27;;;;;;;12.80;70.05;101465.38;5050431;28;20261;-87
2023/05/24 08:55:02;;;;;;;15.50;4.77;;;;;;;12.78;71.20;101468.13;5046399;28;20198;-88
2023/05/24 08:57:31;;;;;;;18.90;5.30;;;;;;;12.79;72.76;101472.53;5047983;28;20244;-87
2023/05/24 08:59:58;;;;;;;14.30;4.40;;;;;;;12.78;73.62;101475.28;5043923;28;20210;-87
2023/05/24 09:02:25;;;;;;;7.90;3.93;;;;;;;12.75;74.41;101480.81;5052490;28;20206;-89
2023/05/24 09:04:53;;;;;;;15.20;4.43;;;;;;;12.69;74.82;101475.84;5050155;28;20210;-87
2023/05/24 09:07:23;;;;;;;14.20;4.80;;;;;;;12.62;75.67;101480.69;5050888;28;20696;-88
2023/05/24 09:09:55;;;;;;;16.17;4.87;;;;;;;12.56;75.94;101480.19;5048580;28;20214;-86
2023/05/24 09:12:23;;;;;;;10.47;4.80;;;;;;;12.49;76.39;101475.22;5052109;28;20784;-89
2023/05/24 09:14:49;;;;;;;15.33;4.60;;;;;;;12.44;77.31;101487.97;5046169;28;20633;-87
2023/05/24 09:17:17;;;;;;;12.30;4.60;;;;;;;12.40;77.10;101482.88;5054686;28;20298;-87
2023/05/24 09:19:45;;;;;;;13.33;4.77;;;;;;;12.36;77.30;101489.38;5052031;28;20212;-87
2023/05/24 09:22:13;;;;;;;16.43;4.77;;;;;;;12.31;77.86;101484.28;5047168;28;20201;-86
2023/05/24 09:24:47;;;;;;;14.77;4.23;;;;;;;12.31;78.20;101486.97;5054014;28;20577;-86
2023/05/24 09:27:15;;;;;;;15.27;4.67;;;;;;;12.26;78.31;101489.03;5048011;28;20239;-87
2023/05/24 09:29:44;;;;;;;17.33;5.97;;;;;;;12.24;78.91;101493.59;5053544;28;20307;-87
2023/05/24 09:32:12;;;;;;;13.30;4.47;;;;;;;12.21;79.30;101485.75;5052828;28;20635;-87
2023/05/24 09:34:40;;;;;;;11.97;4.73;;;;;;;12.25;80.03;101486.44;5048177;28;20204;-87
2023/05/24 09:37:09;;;;;;;12.93;4.40;;;;;;;12.27;80.71;101488.06;5057183;28;20730;-87
2023/05/24 09:39:40;;;;;;;11.57;4.80;;;;;;;12.31;81.02;101502.13;5050754;28;20237;-87
2023/05/24 09:42:15;;;;;;;15.73;4.43;;;;;;;12.29;80.91;101496.88;5051707;28;20566;-86
2023/05/24 09:44:42;;;;;;;13.27;4.10;;;;;;;12.21;80.29;101496.44;5049256;28;20236;-87
2023/05/24 09:47:08;;;;;;;10.93;4.13;;;;;;;12.14;80.22;101492.41;5047186;28;20238;-87
2023/05/24 09:49:37;;;;;;;16.77;5.07;;;;;;;12.09;80.24;101478.44;5041133;28;20217;-87
2023/05/24 09:52:04;;;;;;;12.80;4.27;;;;;;;12.08;80.79;101487.38;5052403;28;20205;-87
2023/05/24 09:54:31;;;;;;;11.50;4.07;;;;;;;12.10;80.93;101493.50;5050841;28;20600;-87
2023/05/24 09:57:00;;;;;;;10.93;4.37;;;;;;;12.08;81.06;101485.59;5052670;28;20185;-87
2023/05/24 09:59:32;;;;;;;11.43;4.77;;;;;;;12.11;81.26;101479.22;5051306;28;20221;-87
2023/05/24 10:02:09;;;;;;;12.60;4.97;;;;;;;12.14;81.85;101485.25;5051294;28;20203;-86
2023/05/24 10:04:35;;;;;;;18.13;4.73;;;;;;;12.21;81.65;101485.75;5050664;28;20209;-87
2023/05/24 10:07:02;;;;;;;12.20;3.67;;;;;;;12.24;81.88;101482.91;5048970;28;20293;-87
2023/05/24 10:09:32;;;;;;;8.57;4.07;;;;;;;12.27;81.74;101485.41;5042509;28;20688;-87
2023/05/24 10:12:03;;;;;;;14.27;5.47;;;;;;;12.27;81.20;101480.06;5045952;28;20217;-86
2023/05/24 10:14:33;;;;;;;10.77;4.43;;;;;;;12.31;81.44;101470.94;5049144;28;20208;-87
2023/05/24 10:16:59;;;;;;;10.43;4.53;;;;;;;12.33;81.39;101479.72;5047301;28;20265;-87
2023/05/24 10:19:26;;;;;;;14.43;5.73;;;;;;;12.34;81.12;101489.47;5053959;28;20202;-87
2023/05/24 10:21:53;;;;;;;14.33;5.47;;;;;;;12.32;80.91;101483.34;5046091;28;20281;-87
2023/05/24 10:24:25;;;;;;;14.00;5.30;;;;;;;12.33;80.71;101484.19;5051115;28;20210;-87
2023/05/24 10:26:54;;;;;;;16.83;4.80;;;;;;;12.34;80.71;101491.28;5048939;28;20200;-87
2023/05/24 10:29:33;;;;;;;14.60;5.93;;;;;;;12.32;80.49;101487.81;5052708;28;20215;-86
2023/05/24 10:32:02;;;;;;;13.13;5.00;;;;;;;12.32;80.34;101499.38;5043018;28;20649;-87
2023/05/24 10:34:30;;;;;;;20.33;6.23;;;;;;;12.34;80.60;101497.47;5049505;28;20209;-86
2023/05/24 10:36:59;;;;;;;12.50;5.20;;;;;;;12.33;80.60;101495.75;5044989;28;20201;-86
2023/05/24 10:39:26;;;;;;;15.00;5.53;;;;;;;12.36;80.99;101492.88;5048296;28;20208;-87
2023/05/24 10:41:55;;;;;;;11.07;5.17;;;;;;;12.39;80.50;101495.38;5048617;28;20291;-87
2023/05/24 10:44:22;;;;;;;20.03;5.53;;;;;;;12.34;80.19;101496.63;5053042;28;20591;-87
2023/05/24 10:47:20;;;;;;;14.97;5.10;;;;;;;12.34;80.33;101497.47;5045362;28;20270;-87
2023/05/24 10:49:51;;;;;;;12.83;4.73;;;;;;;12.35;80.02;101501.88;4998077;28;20205;-87
2023/05/24 10:52:18;;;;;;;18.30;5.93;;;;;;;12.39;80.02;101505.19;5047362;28;20248;-87
2023/05/24 10:55:04;;;;;;;15.50;5.63;;;;;;;12.42;80.14;101500.56;5048713;28;20202;-86
2023/05/24 10:57:32;;;;;;;10.83;5.17;;;;;;;12.39;80.04;101495.38;5044248;28;20252;-87
2023/05/24 11:00:30;;;;;;;17.67;5.50;;;;;;;12.40;79.69;101493.56;5044391;28;20233;-87
2023/05/24 11:03:01;;;;;;;13.93;6.03;;;;;;;12.40;79.74;101502.44;5046274;28;20212;-88
2023/05/24 11:05:33;;;;;;;17.40;5.93;;;;;;;12.38;79.44;101508.81;5047573;28;20236;-87
2023/05/24 11:08:01;;;;;;;13.47;5.10;;;;;;;12.35;79.43;101506.34;5048219;28;20309;-87
2023/05/24 11:10:31;;;;;;;12.43;6.23;;;;;;;12.36;79.60;101506.22;5051010;28;20252;-87
2023/05/24 11:13:00;;;;;;;17.40;5.47;;;;;;;12.33;79.83;101510.91;5052713;28;20213;-87
2023/05/24 11:15:27;;;;;;;14.20;6.00;;;;;;;12.30;79.90;101511.94;5051195;28;20210;-86
2023/05/24 11:18:19;;;;;;;14.93;6.20;;;;;;;12.30;80.29;101519.97;5043976;28;20275;-86
2023/05/24 11:20:47;;;;;;;13.67;5.60;;;;;;;12.31;80.64;101519.00;5051842;28;20206;-86
2023/05/24 11:23:15;;;;;;;17.57;7.20;;;;;;;12.33;81.64;101514.44;5049673;28;20693;-87
2023/05/24 11:25:42;;;;;;;11.77;5.77;;;;;;;12.39;82.45;101514.06;5049528;28;20201;-87
2023/05/24 11:28:10;;;;;;;14.37;5.87;;;;;;;12.41;83.47;101511.31;5052987;28;20267;-87
2023/05/24 11:30:40;;;;;;;17.17;6.33;;;;;;;12.44;83.72;101511.16;5047112;28;20205;-86
2023/05/24 11:33:13;;;;;;;17.27;7.13;;;;;;;12.52;84.85;101522.28;5045521;28;20201;-87
2023/05/24 11:35:42;;;;;;;10.87;6.17;;;;;;;12.59;85.26;101514.75;5054446;28;20210;-86
2023/05/24 11:38:12;;;;;;;10.90;5.37;;;;;;;12.65;85.53;101519.75;5051098;28;20218;-86
2023/05/24 11:40:43;;;;;;;15.23;6.10;;;;;;;12.71;86.13;101508.72;5049671;28;20650;-87
2023/05/24 11:43:10;;;;;;;15.93;6.30;;;;;;;12.77;86.22;101513.66;5046947;28;20260;-87